x

8419317 - Wells, Me (welm1) Weather Station

4:54 - Sat 22nd Nov 2014 All times are EST. -5 hours from GMT.

  • Wind
    3mph
  • Sea Temp 41°f
  • Ar Temp 22°f
  • Sea Pressure 1027.5mb
  • 8419317 - Wells, Me
  • 8419317 - Wells, Me

More Historic Weather Station data

Upgrade to MSW Pro to gain access to the past 30 days of data for over 8000 Wavebouys and Weather Stations around the globe.

Join Pro

Comparision Forecast

View Surf forecast
   
Sáb 11/22 4:54 3
mph
1027.5mb 41f 22f
4:48 3 5 mph 1027.5mb 41f 22f
4:42 3 5 mph 1027.6mb 41f 22f
4:36 2 6 mph 1027.7mb 41f 22f
4:30 5 7 mph 1027.8mb 42f 22f
4:24 3 7 mph 1028mb 42f 22f
4:18 5 7 mph 1028.1mb 42f 22f
4:12 5 6 mph 1027.9mb 42f 22f
4:06 3 7 mph 1027.9mb 42f 22f
4:00 1 5 mph 1027.8mb 42f 22f
3:54 2 6 mph 1027.8mb 42f 22f
3:48 3 6 mph 1027.7mb 42f 22f
3:42 3 6 mph 1027.7mb 42f 22f
3:36 3 6 mph 1027.7mb 42f 22f
3:30 5 7 mph 1027.7mb 42f 22f
3:24 6 7 mph 1027.8mb 42f 22f
3:18 5 6 mph 1027.9mb 42f 22f
3:12 5 6 mph 1027.9mb 43f 22f
3:06 3 8 mph 1027.9mb 43f 23f
3:00 5 9 mph 1027.9mb 43f 23f
2:54 7 11 mph 1027.8mb 43f 23f
2:48 7 9 mph 1027.9mb 43f 23f
2:42 7 9 mph 1027.9mb 43f 23f
2:36 5 7 mph 1027.9mb 43f 23f
2:30 5 8 mph 1028mb 43f 23f
2:24 5 8 mph 1028mb 43f 23f
2:18 3 7 mph 1028.1mb 44f 23f
2:12 7 9 mph 1028mb 44f 23f
2:06 7 9 mph 1028mb 44f 23f
2:00 6 9 mph 1027.9mb 44f 23f
1:54 6 8 mph 1027.9mb 44f 23f
1:48 5 7 mph 1027.9mb 44f 23f
1:42 6 7 mph 1027.9mb 44f 23f
1:36 6 8 mph 1027.7mb 44f 23f
1:30 5 8 mph 1027.6mb 44f 23f
1:24 5 6 mph 1027.8mb 44f 23f
1:18 3 6 mph 1027.8mb 45f 24f
1:12 3 6 mph 1027.8mb 45f 24f
1:06 2 5 mph 1027.9mb 45f 24f
1:00 3 6 mph 1027.9mb 45f 24f
12:54 3 8 mph 1027.8mb 45f 24f
12:48 6 8 mph 1027.6mb 45f 24f
12:42 8 10 mph 1027.6mb 45f 24f
12:36 6 9 mph 1027.5mb 45f 24f
12:30 7 10 mph 1027.5mb 45f 24f
12:24 7 13 mph 1027.4mb 45f 24f
12:18 8 11 mph 1027.4mb 45f 24f
12:12 7 11 mph 1027.5mb 45f 24f
12:06 7 11 mph 1027.4mb 45f 24f
12:00 7 11 mph 1027.3mb 45f 24f
Sex 11/21 11:54 8 11 mph 1027.3mb 45f 24f
11:48 8 11 mph 1027.4mb 45f 24f
11:42 7 11 mph 1027.5mb 45f 24f
11:36 6 10 mph 1027.5mb 45f 24f
11:30 6 9 mph 1027.5mb 45f 25f
11:24 7 13 mph 1027.4mb 45f 25f
11:18 7 10 mph 1027.4mb 45f 25f
11:12 6 11 mph 1027.5mb 45f 25f
11:06 6 9 mph 1027.4mb 45f 25f
11:00 6 9 mph 1027.4mb 45f 25f
10:54 6 9 mph 1027.4mb 45f 25f
10:48 5 7 mph 1027.3mb 45f 25f
10:42 3 7 mph 1027.2mb 45f 26f
10:36 7 14 mph 1027.1mb 45f 26f
10:30 10 14 mph 1027mb 45f 26f
10:24 7 13 mph 1026.9mb 46f 26f
10:18 8 17 mph 1026.7mb 46f 26f
10:12 9 15 mph 1026.6mb 46f 26f
10:06 9 14 mph 1026.8mb 46f 26f
10:00 6 14 mph 1026.9mb 46f 26f
9:54 6 9 mph 1026.9mb 46f 26f
9:48 6 11 mph 1026.9mb 46f 26f
9:42 6 14 mph 1026.9mb 46f 26f
9:36 8 14 mph 1026.7mb 46f 26f
9:30 9 16 mph 1026.6mb 46f 27f
9:24 13 21 mph 1026.4mb 46f 27f
9:18 9 18 mph 1026.4mb 46f 27f
9:12 13 23 mph 1026.4mb 46f 27f
9:06 9 16 mph 1026.3mb 46f 27f
9:00 11 18 mph 1026.2mb 46f 27f
8:54 8 21 mph 1026.1mb 46f 27f
8:48 9 18 mph 1026mb 46f 27f
8:42 8 15 mph 1026mb 46f 27f
8:36 5 10 mph 1026mb 46f 26f
8:30 9 13 mph 1025.9mb 46f 26f
8:24 7 11 mph 1026.1mb 45f 26f
8:18 7 10 mph 1026.1mb 45f 27f
8:12 7 10 mph 1026mb 45f 27f
8:06 6 10 mph 1026mb 46f 27f
8:00 6 8 mph 1026mb 46f 27f
7:54 6 7 mph 1025.8mb 45f 27f
7:48 6 8 mph 1025.8mb 45f 27f
7:42 5 13 mph 1025.7mb 45f 27f
7:36 9 13 mph 1025.7mb 45f 27f
7:30 8 11 mph 1025.6mb 44f 27f
7:24 7 14 mph 1025.6mb 43f 27f
7:18 8 11 mph 1025.5mb 42f 27f
7:12 7 10 mph 1025.3mb 42f 27f
7:06 7 10 mph 1025.3mb 42f 27f
7:00 6 11 mph 1025.3mb 42f 27f
6:54 6 10 mph - - -
6:48 3 7 mph 1025.2mb 42f 27f
6:42 3 9 mph 1025.2mb 42f 28f
6:36 8 10 mph 1025.2mb 41f 28f
6:30 6 10 mph 1025.1mb 41f 28f
6:24 5 10 mph 1024.9mb 41f 28f
6:18 5 8 mph 1024.8mb 41f 28f
6:12 7 10 mph 1024.7mb 41f 28f
6:06 7 11 mph 1024.6mb 41f 28f
6:00 8 14 mph 1024.5mb 41f 28f
5:54 9 14 mph 1024.4mb 41f 28f
5:48 5 8 mph 1024.3mb 41f 28f
5:42 7 14 mph 1024.3mb 41f 28f
5:36 13 18 mph 1024.1mb 41f 28f
5:30 7 13 mph 1024mb 41f 28f
5:24 8 11 mph 1023.9mb 42f 28f
5:18 8 14 mph 1023.7mb 42f 28f
5:12 10 15 mph 1023.5mb 42f 29f
5:06 10 17 mph 1023.4mb 42f 29f
5:00 14 23 mph 1023.2mb 42f 29f
4:54 11 18 mph 1022.9mb 43f 29f
4:48 13 18 mph 1022.8mb 43f 29f
4:42 13 20 mph 1022.6mb 43f 29f
4:36 16 25 mph 1022.3mb 43f 29f
4:30 13 23 mph 1022.3mb 43f 29f
4:24 17 23 mph 1022.1mb 43f 29f
4:18 16 29 mph 1022mb 43f 29f
4:12 16 24 mph 1021.9mb 43f 29f
4:06 11 23 mph 1021.8mb 43f 29f
4:00 13 22 mph 1021.8mb 43f 29f
3:54 11 18 mph 1021.6mb 43f 30f
3:48 10 18 mph 1021.6mb 43f 30f
3:42 7 21 mph 1021.4mb 43f 30f
3:36 13 22 mph 1021.2mb 43f 30f
3:30 11 16 mph 1021.1mb 43f 30f
3:24 13 24 mph 1021mb 43f 30f
3:18 15 23 mph 1020.8mb 43f 30f
3:12 15 25 mph 1020.6mb 43f 31f
3:06 16 25 mph 1020.4mb 44f 31f
3:00 11 21 mph 1020.4mb 44f 31f
2:54 16 24 mph 1020.2mb 44f 31f
2:48 14 20 mph 1020mb 44f 31f
2:42 15 24 mph 1019.8mb 44f 31f
2:36 21 28 mph 1019.7mb 44f 30f
2:30 17 28 mph 1019.6mb 44f 31f
2:24 17 24 mph 1019.5mb 44f 31f
2:18 18 29 mph 1019.4mb 44f 31f
2:06 11 24 mph 1019.2mb 44f 31f
2:00 13 23 mph 1019.1mb 44f 31f
1:54 16 23 mph 1019mb 44f 31f
1:48 11 26 mph 1018.8mb 44f 31f
1:42 23 31 mph 1018.6mb 44f 31f
1:36 18 25 mph 1018.5mb 45f 31f
1:30 14 23 mph 1018.5mb 45f 31f
1:24 16 28 mph 1018.3mb 45f 31f
1:18 18 30 mph 1018.2mb 45f 31f
1:12 15 24 mph 1018.1mb 45f 32f
1:06 14 29 mph 1018.1mb 45f 31f
1:00 15 26 mph 1018mb 46f 32f
12:54 15 20 mph 1018mb 46f 32f
12:48 14 25 mph 1018.1mb 46f 31f
12:42 18 26 mph 1017.8mb 46f 31f
12:36 16 29 mph 1017.7mb 46f 31f
12:30 20 29 mph 1017.6mb 46f 31f
12:24 14 23 mph 1017.5mb 46f 31f
12:18 15 22 mph 1017.5mb 46f 31f
12:12 16 25 mph 1017.5mb 46f 31f
12:06 15 26 mph 1017.4mb 46f 31f
12:00 17 26 mph 1017.4mb 46f 31f
11:54 18 25 mph 1017.2mb 46f 31f
11:48 16 25 mph 1017.2mb 46f 32f
11:42 16 29 mph 1017.2mb 46f 32f
11:36 21 29 mph 1016.9mb 46f 31f
11:30 13 24 mph 1016.8mb 46f 32f
11:24 17 29 mph 1016.8mb 46f 31f
11:18 16 29 mph 1016.9mb 46f 31f
11:12 23 31 mph 1016.8mb 46f 31f
11:06 17 32 mph 1016.9mb 46f 31f
11:00 10 22 mph 1017mb 46f 32f
10:54 15 22 mph 1016.9mb 46f 31f
10:48 14 26 mph 1016.7mb 46f 32f
10:42 18 31 mph 1016.6mb 46f 31f
10:36 17 29 mph 1016.5mb 46f 31f
10:30 14 24 mph 1016.6mb 46f 31f
10:24 14 24 mph 1016.6mb 46f 31f
10:18 20 29 mph 1016.5mb 46f 31f
10:12 21 28 mph 1016.4mb 46f 30f
10:06 21 28 mph 1016.2mb 46f 31f
10:00 18 29 mph 1016.3mb 46f 31f
9:54 14 23 mph 1016.3mb 46f 31f
9:48 17 25 mph 1016.3mb 46f 31f
9:42 15 28 mph 1016.3mb 46f 30f
9:36 10 23 mph 1016.2mb 46f 31f
9:30 16 22 mph 1016mb 46f 30f
9:24 15 26 mph 1016mb 46f 30f
9:18 13 18 mph 1015.9mb 46f 30f
9:12 10 16 mph 1015.9mb 46f 30f
9:06 15 22 mph 1015.8mb 46f 30f
9:00 11 15 mph 1015.7mb 46f 30f
8:54 13 17 mph 1015.6mb 46f 29f
8:48 10 16 mph 1015.5mb 46f 29f
8:42 8 24 mph 1015.4mb 46f 29f
8:36 14 22 mph 1015.4mb 46f 28f
8:30 14 18 mph 1015.4mb 46f 28f
8:24 9 14 mph 1015.3mb 46f 28f
8:18 10 20 mph 1015.3mb 46f 28f
8:12 11 18 mph 1015.2mb 46f 28f
8:06 7 14 mph 1015.2mb 46f 28f
8:00 8 13 mph 1015.2mb 46f 27f
7:54 8 11 mph 1015.1mb 46f 27f
7:48 7 16 mph 1015mb 46f 27f
7:42 8 15 mph 1014.9mb 46f 27f
7:36 9 15 mph 1014.7mb 46f 27f
7:30 9 18 mph 1014.5mb 46f 27f
7:24 7 16 mph 1014.5mb 46f 27f
7:18 9 14 mph 1014.4mb 46f 26f
7:12 13 17 mph 1014.4mb 46f 26f
7:06 10 15 mph 1014.3mb 46f 26f
7:00 7 14 mph 1014.2mb 46f 26f
6:54 7 11 mph 1014.2mb 46f 26f
6:48 7 14 mph 1014mb 46f 26f
6:42 7 10 mph 1013.9mb 45f 26f
6:36 7 10 mph 1013.9mb 45f 26f
6:30 7 13 mph 1013.8mb 45f 26f
6:24 8 17 mph 1013.7mb 44f 26f
6:18 8 14 mph 1013.5mb 44f 26f
6:12 8 14 mph 1013.3mb 43f 26f
6:06 8 14 mph 1013.3mb 43f 26f
6:00 8 14 mph 1013.2mb 43f 26f
5:54 9 17 mph 1013.1mb 42f 26f
5:48 8 13 mph 1013mb 42f 26f
5:42 8 13 mph 1012.8mb 41f 26f
5:36 7 10 mph 1012.7mb 41f 26f
5:30 8 10 mph 1012.7mb 41f 26f
5:24 7 11 mph 1012.7mb 41f 26f
5:18 7 11 mph 1012.5mb 41f 26f
5:12 7 11 mph 1012.5mb 41f 26f
5:06 8 13 mph 1012.4mb 41f 26f
5:00 7 11 mph 1012.3mb 41f 26f
4:54 8 11 mph 1012.3mb 41f 26f
4:48 7 10 mph 1012.3mb 42f 27f
4:42 6 14 mph 1012.3mb 42f 27f
4:36 6 10 mph 1012.2mb 42f 27f
4:30 7 9 mph 1012.2mb 42f 27f
4:24 7 11 mph 1012.1mb 42f 27f
4:18 7 11 mph 1012mb 42f 27f
4:12 8 13 mph 1011.9mb 43f 27f
4:06 8 11 mph 1011.9mb 43f 27f
4:00 8 13 mph 1011.9mb 43f 27f
3:54 8 14 mph 1011.8mb 43f 27f
3:48 9 15 mph 1011.8mb 43f 27f
3:42 8 13 mph 1011.8mb 43f 28f
3:36 8 14 mph 1011.7mb 43f 28f
3:30 7 13 mph 1011.7mb 43f 28f
3:24 7 13 mph 1011.6mb 44f 28f
3:18 8 15 mph 1011.5mb 44f 28f
3:12 3 7 mph 1011.5mb 44f 27f
3:06 3 9 mph 1011.4mb 44f 27f
3:00 6 7 mph 1011.3mb 44f 28f
2:54 5 6 mph 1011.4mb 44f 28f
2:48 3 5 mph 1011.4mb 44f 28f
2:42 5 7 mph 1011.3mb 44f 28f
2:36 3 8 mph 1011.3mb 44f 28f
2:30 3 7 mph 1011.3mb 44f 28f
2:24 5 7 mph 1011.3mb 44f 28f
2:18 6 8 mph 1011.3mb 44f 28f
2:12 6 9 mph 1011.2mb 44f 28f
2:06 7 10 mph 1011.2mb 45f 29f
2:00 6 10 mph 1011.2mb 45f 29f
1:54 8 11 mph 1011.2mb 45f 29f
1:48 8 11 mph 1011.2mb 45f 29f
1:42 10 14 mph 1011.2mb 45f 29f
1:36 9 15 mph 1011.1mb 45f 29f
1:30 13 17 mph 1011mb 45f 30f
1:24 14 20 mph 1010.9mb 45f 30f
1:18 11 17 mph 1010.9mb 45f 30f
1:12 10 18 mph 1010.9mb 45f 30f
1:06 10 22 mph 1010.9mb 46f 30f
1:00 10 16 mph 1010.8mb 46f 30f
12:54 7 16 mph 1010.9mb 46f 30f
12:48 9 16 mph 1010.9mb 46f 30f
12:42 6 11 mph 1010.9mb 46f 30f
12:36 7 13 mph 1010.9mb 46f 30f
12:30 10 14 mph 1010.9mb 46f 30f
12:24 9 14 mph 1010.9mb 46f 30f
12:18 9 15 mph 1011mb 46f 31f
12:12 9 17 mph 1011mb 46f 31f
12:06 7 17 mph 1011mb 46f 30f
12:00 8 15 mph 1011mb 46f 30f
Qui 11/20 11:54 9 14 mph 1011mb 46f 31f
11:48 9 11 mph 1011mb 46f 31f
11:42 8 15 mph 1011mb 46f 31f
11:36 8 14 mph 1010.9mb 46f 31f
11:30 8 14 mph 1010.9mb 46f 31f
11:24 9 16 mph 1010.9mb 46f 31f
11:18 9 16 mph 1010.9mb 46f 31f
11:12 9 13 mph 1010.9mb 46f 31f
11:06 8 16 mph 1010.8mb 46f 31f
11:00 9 15 mph 1010.8mb 46f 31f
10:54 8 14 mph 1010.7mb 47f 31f
10:48 8 14 mph 1010.7mb 47f 32f
10:42 9 14 mph 1010.7mb 47f 32f
10:36 9 14 mph 1010.7mb 47f 32f
10:30 9 16 mph 1010.6mb 47f 32f
10:24 8 16 mph 1010.7mb 47f 32f
10:18 7 13 mph 1010.6mb 47f 32f
10:12 9 15 mph 1010.7mb 47f 33f
10:06 7 11 mph 1010.7mb 47f 33f
10:00 7 11 mph 1010.7mb 47f 33f
9:54 9 15 mph 1010.7mb 47f 33f
9:48 9 18 mph 1010.7mb 47f 33f
9:42 8 16 mph 1010.7mb 47f 33f
9:36 10 16 mph 1010.6mb 47f 33f
9:30 8 14 mph 1010.5mb 47f 33f
9:24 9 14 mph 1010.5mb 47f 33f
9:18 5 15 mph 1010.5mb 47f 33f
9:12 6 11 mph 1010.4mb 47f 33f
9:06 6 11 mph 1010.4mb 47f 33f
9:00 9 13 mph 1010.3mb 47f 34f
8:54 10 15 mph 1010.3mb 47f 34f
8:48 7 11 mph 1010.4mb 47f 34f
8:42 6 8 mph 1010.2mb 47f 34f
8:36 5 10 mph 1010.2mb 47f 34f
8:30 7 11 mph 1010.3mb 47f 34f
8:24 6 11 mph 1010.4mb 47f 35f
8:18 8 13 mph 1010.5mb 47f 35f
8:12 10 16 mph 1010.4mb 47f 35f
8:06 8 14 mph 1010.2mb 47f 35f
8:00 10 15 mph 1010mb 47f 35f
7:54 9 14 mph 1009.9mb 47f 35f
7:48 8 15 mph 1009.9mb 47f 35f
7:42 9 13 mph 1009.9mb 47f 35f
7:36 6 10 mph 1009.9mb 47f 35f
7:30 6 10 mph 1009.8mb 47f 35f
7:24 5 8 mph 1009.8mb 47f 34f
7:18 5 6 mph 1009.7mb 47f 35f
7:12 5 9 mph 1009.5mb 46f 35f
7:06 7 9 mph 1009.4mb 46f 35f
7:00 7 11 mph 1009.5mb 46f 35f
6:54 6 11 mph 1009.5mb 46f 35f
6:48 8 10 mph 1009.3mb 46f 35f
6:42 6 10 mph 1009.5mb 46f 35f
6:36 6 9 mph 1009.3mb 45f 35f
6:30 5 9 mph 1009.1mb 45f 35f
6:24 6 9 mph 1009mb 45f 36f
6:18 6 9 mph 1008.9mb 45f 36f
6:12 5 9 mph 1008.8mb 45f 36f
6:06 6 9 mph 1008.7mb 45f 36f
6:00 7 11 mph 1008.6mb 45f 36f
5:54 8 13 mph 1008.5mb 45f 37f
5:48 8 13 mph 1008.4mb 45f 37f
5:42 8 14 mph 1008.4mb 44f 37f
5:36 8 14 mph 1008.2mb 43f 37f
5:30 8 14 mph 1008.2mb 43f 37f
5:24 10 14 mph 1008mb 43f 37f
5:18 10 14 mph 1007.9mb 43f 37f
5:12 9 13 mph 1007.8mb 43f 38f
5:06 9 14 mph 1007.8mb 43f 38f
5:00 7 11 mph 1007.7mb 43f 38f
4:54 6 9 mph 1007.7mb 43f 38f
4:48 5 9 mph 1007.5mb 43f 38f
4:42 7 11 mph 1007.3mb 43f 39f
4:36 8 11 mph 1007.2mb 43f 39f
4:30 9 14 mph 1007.1mb 43f 39f
4:24 6 13 mph 1007mb 44f 39f
4:18 6 11 mph 1006.9mb 44f 40f
4:12 8 11 mph 1006.9mb 44f 40f
4:06 10 14 mph 1006.8mb 44f 40f
4:00 7 13 mph 1006.7mb 44f 40f
3:54 6 11 mph 1006.6mb 44f 40f
3:48 6 11 mph 1006.5mb 44f 40f
3:42 8 17 mph 1006.5mb 44f 41f
3:36 6 11 mph 1006.3mb 44f 42f
3:30 6 14 mph 1006.2mb 44f 42f
3:24 8 14 mph 1006.3mb 44f 42f
3:18 6 13 mph 1006.2mb 44f 42f
3:12 8 14 mph 1006.2mb 44f 42f
3:06 7 10 mph 1006.1mb 44f 43f
3:00 10 17 mph 1006.1mb 44f 43f
2:54 9 21 mph 1006.1mb 44f 43f
2:48 10 17 mph 1006.1mb 44f 43f
2:42 10 16 mph 1006.1mb 44f 43f
2:36 8 16 mph 1006.2mb 44f 43f
2:30 7 16 mph 1006.1mb 44f 42f
2:24 11 16 mph 1006.1mb 44f 42f
2:18 14 20 mph 1006.1mb 44f 43f
2:12 14 21 mph 1006.1mb 44f 43f
2:06 10 24 mph 1006.2mb 44f 43f
2:00 10 18 mph 1006.3mb 45f 43f
1:54 10 16 mph 1006.3mb 45f 43f
1:48 9 20 mph 1006.3mb 45f 43f
1:42 10 17 mph 1006.4mb 45f 43f
1:36 9 16 mph 1006.4mb 45f 43f
1:30 7 13 mph 1006.4mb 45f 43f
1:24 10 16 mph 1006.5mb 45f 42f
1:18 9 15 mph 1006.6mb 45f 43f
1:12 9 14 mph 1006.5mb 45f 42f
1:06 10 21 mph 1006.6mb 45f 42f
1:00 9 15 mph 1006.7mb 45f 42f
12:54 5 10 mph 1006.8mb 45f 42f
12:48 5 9 mph 1006.9mb 45f 41f
12:42 6 11 mph 1007mb 45f 41f
12:36 8 13 mph 1007.1mb 46f 41f
12:30 9 11 mph 1007.1mb 46f 41f
12:24 8 16 mph 1007.1mb 46f 42f
12:18 10 18 mph 1007.1mb 46f 42f
12:12 11 16 mph 1007.4mb 46f 42f
12:06 11 17 mph 1007.5mb 46f 42f
12:00 8 11 mph 1007.5mb 46f 42f
11:54 8 14 mph 1007.6mb 46f 42f
11:48 9 11 mph 1007.7mb 46f 41f
11:42 8 16 mph 1007.9mb 46f 41f
11:36 9 17 mph 1008mb 46f 41f
11:30 10 17 mph 1008.1mb 46f 40f
11:24 10 14 mph 1008.2mb 46f 40f
11:18 6 10 mph 1008.3mb 46f 40f
11:12 3 9 mph 1008.5mb 46f 40f
11:06 7 13 mph 1008.6mb 46f 40f
11:00 8 11 mph 1008.7mb 46f 39f
10:54 7 11 mph 1008.8mb 46f 39f
10:42 6 9 mph 1009mb 46f 39f
10:36 5 10 mph 1009.2mb 46f 39f
10:30 6 11 mph 1009.3mb 46f 39f
10:24 10 15 mph 1009.5mb 46f 38f
10:18 8 13 mph 1009.7mb 46f 38f
10:12 9 16 mph 1009.8mb 46f 38f
10:06 11 15 mph 1009.9mb 46f 37f
10:00 10 15 mph 1009.9mb 46f 36f
9:54 9 14 mph 1010mb 46f 36f
9:48 8 13 mph 1010.1mb 46f 36f
9:42 7 11 mph 1010.1mb 46f 35f
9:36 6 11 mph 1010.2mb 46f 35f
9:30 6 10 mph 1010.5mb 46f 34f
9:24 5 7 mph 1010.5mb 46f 34f
9:18 3 7 mph 1010.6mb 46f 33f
9:12 5 7 mph 1010.7mb 46f 33f
9:06 5 10 mph 1010.7mb 46f 33f
9:00 7 9 mph 1010.6mb 46f 33f
8:54 6 9 mph 1010.8mb 46f 33f
8:48 5 8 mph 1011mb 46f 32f
8:42 3 7 mph 1011mb 46f 32f
8:36 5 7 mph 1011.2mb 46f 32f
8:30 3 6 mph 1011.1mb 46f 31f
8:24 3 5 mph 1011.1mb 46f 31f
8:18 2 6 mph 1011.2mb 46f 31f
8:12 3 5 mph 1011mb 46f 31f
8:06 3 6 mph 1011.1mb 46f 31f
8:00 3 6 mph 1011.3mb 46f 30f
7:54 3 5 mph 1011.1mb 46f 29f
7:48 3 5 mph 1011.2mb 46f 29f
7:42 3 5 mph 1011.3mb 46f 29f
7:36 2 3 mph 1011.4mb 46f 29f
7:30 2 5 mph 1011.3mb 46f 29f
7:24 5 6 mph 1011.4mb 46f 29f
7:18 3 6 mph 1011.4mb 46f 29f
7:12 5 6 mph 1011.4mb 46f 29f
7:06 5 7 mph 1011.6mb 46f 29f
7:00 5 7 mph 1011.6mb 46f 29f
6:54 3 5 mph 1011.6mb 46f 29f
6:48 3 5 mph 1011.7mb 46f 28f
6:42 2 3 mph 1011.7mb 46f 28f
6:36 2
mph
1011.6mb 46f 29f
6:30 1 2 mph 1011.7mb 46f 29f
6:24 2
mph
1011.8mb 46f 29f
6:18 2
mph
1011.8mb 46f 29f
6:12  -  2 mph 1011.8mb 46f 29f
6:06 1 2 mph 1011.9mb 46f 29f
6:00 1 2 mph 1011.9mb 45f 29f
5:54 2
mph
1012mb 45f 29f
5:48 1 2 mph 1012mb 44f 29f
5:42 2 3 mph 1012mb 44f 29f
5:36 2 5 mph 1012mb 44f 29f
5:30 3 5 mph 1012.1mb 44f 29f
5:24 2 6 mph 1012.2mb 44f 29f
5:18 2 3 mph 1012.2mb 44f 29f
5:12 2 6 mph 1012.2mb 44f 29f
5:06 3 6 mph 1012.2mb 44f 30f
5:00 2 6 mph 1012.3mb 42f 30f
4:54 3 6 mph 1012.3mb 41f 30f
4:48 2 7 mph 1012.4mb 41f 30f
4:42 6 7 mph 1012.5mb 41f 30f
4:36 5 8 mph 1012.5mb 41f 30f
4:30 6 8 mph 1012.7mb 41f 30f
4:24 5 8 mph 1012.8mb 41f 30f
4:18 5 7 mph 1012.9mb 41f 30f
4:12 6 9 mph 1012.9mb 41f 30f
4:06 3 8 mph 1012.9mb 41f 30f
4:00 6 7 mph 1013mb 41f 29f
3:54 3 8 mph 1013mb 41f 29f
3:48 5 6 mph 1013.1mb 42f 29f
3:42 2 6 mph 1013.2mb 42f 29f
3:36 3 5 mph 1013.4mb 42f 29f
3:30 2 6 mph 1013.6mb 42f 29f
3:24 3 5 mph 1013.6mb 42f 29f
3:18 3 5 mph 1013.7mb 42f 29f
3:12 3 6 mph 1013.8mb 42f 29f
3:06 2 6 mph 1013.9mb 42f 29f
3:00 5 7 mph 1014mb 43f 29f
2:54 5 7 mph 1014.1mb 43f 29f
2:48 6 7 mph 1014.2mb 43f 29f
2:42 3 5 mph 1014.2mb 43f 29f
2:36 5 6 mph 1014.3mb 43f 29f
2:30 5 6 mph 1014.4mb 43f 29f
2:24 3 7 mph 1014.4mb 43f 29f
2:18 6 9 mph 1014.6mb 43f 29f
2:12 9 11 mph 1014.8mb 43f 29f
2:06 9 10 mph 1014.8mb 43f 29f
2:00 7 9 mph 1014.9mb 43f 29f
1:54 7 9 mph 1015mb 43f 29f
1:48 7 10 mph 1015mb 43f 29f
1:42 7 9 mph 1015.2mb 44f 29f
1:36 6 10 mph 1015.2mb 44f 29f
1:30 6 8 mph 1015.3mb 44f 29f
1:24 7 8 mph 1015.3mb 44f 29f
1:18 5 9 mph 1015.3mb 44f 29f
1:12 5 9 mph 1015.4mb 44f 29f
1:06 5 7 mph 1015.5mb 44f 29f
1:00 5 8 mph 1015.7mb 44f 29f
12:54 7 11 mph 1015.8mb 44f 29f
12:48 7 10 mph 1015.8mb 44f 29f
12:42 6 10 mph 1015.9mb 44f 29f
12:36 5 8 mph 1015.9mb 44f 29f
12:30 8 10 mph 1016.1mb 44f 29f
12:24 7 10 mph 1016.1mb 45f 29f
12:18 8 11 mph 1016.2mb 45f 29f
12:12 5 10 mph 1016.2mb 45f 29f
12:06 9 13 mph 1016.3mb 45f 30f
12:00 9 16 mph 1016.5mb 45f 30f
Qua 11/19 11:54 11 18 mph 1016.6mb 45f 30f
11:48 9 14 mph 1016.7mb 45f 30f
11:42 8 14 mph 1016.8mb 45f 30f
11:36 6 10 mph 1016.7mb 45f 30f
11:30 7 13 mph 1016.7mb 45f 29f
11:24 5 9 mph 1016.8mb 45f 29f
11:18 7 10 mph 1016.9mb 45f 29f
11:12 8 11 mph 1017mb 45f 29f
11:06 7 11 mph 1017mb 45f 29f
11:00 8 11 mph 1017.1mb 45f 29f
10:54 9 11 mph 1017mb 45f 30f
10:48 8 11 mph 1017mb 45f 29f
10:42 6 8 mph 1017mb 45f 29f
10:36 5 7 mph 1017mb 45f 29f
10:30 6 9 mph 1017.1mb 45f 29f
10:24 7 9 mph 1016.9mb 45f 29f
10:18 7 10 mph 1017mb 45f 29f
10:12 6 9 mph 1016.9mb 45f 29f
10:06 7 9 mph 1017.1mb 45f 29f
10:00 9 10 mph 1017.2mb 46f 30f
9:54 8 10 mph 1017.2mb 46f 30f
9:48 7 9 mph 1017.2mb 46f 29f
9:42 7 10 mph 1017.4mb 46f 29f
9:36 7 13 mph 1017.4mb 46f 29f
9:30 7 9 mph 1017.4mb 46f 29f
9:24 8 11 mph 1017.5mb 46f 29f
9:18 9 11 mph 1017.5mb 46f 29f
9:12 7 9 mph 1017.5mb 46f 29f
9:06 6 9 mph 1017.6mb 46f 29f
9:00 6 10 mph 1017.8mb 46f 29f
8:54 8 11 mph 1017.8mb 46f 29f
8:48 9 11 mph 1017.7mb 46f 29f
8:42 7 10 mph 1017.7mb 46f 29f
8:36 7 10 mph 1017.8mb 46f 29f
8:30 7 10 mph 1017.9mb 46f 29f
8:24 6 8 mph 1017.9mb 46f 29f
8:18 6 8 mph 1017.9mb 46f 29f
8:12 3 8 mph 1017.8mb 46f 29f
8:06 6 8 mph 1017.8mb 46f 29f
8:00 6 9 mph 1017.7mb 46f 29f
7:54 6 9 mph 1017.7mb 46f 29f
7:48 7 10 mph 1017.8mb 46f 30f
7:42 7 10 mph 1017.9mb 46f 30f
7:36 7 9 mph 1018mb 46f 30f
7:30 6 8 mph 1018.1mb 46f 30f
7:24 6 9 mph 1018.2mb 46f 30f
7:18 6 9 mph 1018.2mb 46f 30f
7:12 7 10 mph 1018.2mb 46f 30f
7:06 7 9 mph 1018.2mb 46f 30f
7:00 7 10 mph 1018.2mb 46f 31f
6:48 6 8 mph 1018.2mb 46f 30f
6:42 5 7 mph 1018.1mb 46f 30f
6:36 6 9 mph 1018.3mb 46f 30f
6:30 7 9 mph 1018.3mb 46f 30f
6:24 7 9 mph 1018.3mb 46f 31f
6:18 7 8 mph 1018.3mb 46f 31f
6:12 7 9 mph 1018.2mb 46f 31f
6:06 7 9 mph 1018.3mb 46f 31f
6:00 6 7 mph 1018.3mb 45f 30f
5:54 6 7 mph 1018.4mb 45f 30f
5:48 5 6 mph 1018.3mb 45f 31f
5:42 3 6 mph 1018.3mb 45f 31f
5:36 5 6 mph 1018.2mb 44f 31f
5:30 5 7 mph 1018.2mb 45f 31f
5:24 5 6 mph 1018.2mb 44f 31f
5:18 5 6 mph 1018.1mb 44f 31f
5:12 6
mph
1018.1mb 44f 31f
5:06 5 6 mph 1018.1mb 42f 32f
5:00 5 6 mph 1018mb 42f 32f
4:54 5 6 mph 1018mb 42f 32f
4:48 6 7 mph 1017.9mb 41f 32f
4:42 6 7 mph 1017.9mb 41f 32f
4:36 7 8 mph 1017.9mb 41f 32f
4:30 7 8 mph 1017.9mb 41f 32f
4:24 6 8 mph 1017.8mb 41f 33f
4:18 6 8 mph 1017.7mb 41f 33f
4:06 6 9 mph 1017.6mb 41f 34f
4:00 7 9 mph 1017.6mb 41f 34f
3:54 7 9 mph 1017.6mb 41f 35f
3:48 6 8 mph 1017.5mb 42f 35f
3:42 6 8 mph 1017.4mb 42f 35f
3:36 6 9 mph 1017.5mb 42f 35f
3:30 6 9 mph 1017.5mb 42f 36f
3:24 6 10 mph 1017.5mb 42f 36f
3:18 7 13 mph 1017.5mb 42f 36f
3:06 8 13 mph 1017.5mb 42f 36f
3:00 5 8 mph 1017.4mb 42f 37f
2:54 7 13 mph 1017.4mb 43f 36f
2:48 5 10 mph 1017.4mb 43f 37f
2:42 7 11 mph 1017.4mb 43f 37f
2:36 6 9 mph 1017.3mb 43f 37f
2:30 7 10 mph 1017.3mb 43f 36f
2:24 5 9 mph 1017.1mb 43f 37f
2:18 7 10 mph 1017mb 43f 36f
2:12 9 14 mph 1017.2mb 43f 36f
2:06 10 15 mph 1017.1mb 43f 36f
2:00 7 10 mph 1017.1mb 43f 36f
1:54 8 13 mph 1017.1mb 43f 36f
1:48 7 17 mph 1017.1mb 44f 36f
1:42 9 15 mph 1017.2mb 44f 36f
1:36 5 9 mph 1017.1mb 44f 36f
1:30 7 10 mph 1017.2mb 44f 36f
1:24 2 9 mph 1017.3mb 44f 36f
1:18 9 17 mph 1017.3mb 44f 35f
1:12 9 15 mph 1017.3mb 44f 35f
1:06 9 14 mph 1017.3mb 44f 35f
1:00 8 13 mph 1017.3mb 44f 35f
12:54 9 14 mph 1017.2mb 44f 35f
12:48 10 15 mph 1017.3mb 44f 35f
12:42 9 14 mph 1017.2mb 44f 34f
12:36 6 10 mph 1017.3mb 44f 35f
12:30 7 14 mph 1017.4mb 45f 35f
12:24 9 15 mph 1017.5mb 45f 34f
12:18 10 15 mph 1017.6mb 45f 34f
12:12 13 18 mph 1017.6mb 45f 34f
12:06 13 16 mph 1017.5mb 45f 34f
12:00 8 17 mph 1017.5mb 45f 34f
11:54 11 18 mph 1017.4mb 45f 34f
11:42 9 15 mph 1017.4mb 45f 34f
11:36 9 20 mph 1017.4mb 45f 34f
11:30 13 22 mph 1017.4mb 45f 33f
11:24 8 18 mph 1017.3mb 46f 33f
11:18 10 21 mph 1017.3mb 46f 33f
11:12 9 15 mph 1017.4mb 46f 33f
11:06 10 16 mph 1017.5mb 46f 33f
10:54 13 21 mph 1017.4mb 46f 32f
10:48 11 22 mph 1017.5mb 46f 32f
10:42 11 18 mph 1017.5mb 46f 31f
10:36 11 23 mph 1017.4mb 46f 31f
10:30 13 18 mph 1017.4mb 46f 31f
10:24 10 17 mph 1017.3mb 46f 31f
10:18 13 18 mph 1017.3mb 46f 31f
10:06 11 17 mph 1017.3mb 46f 30f
10:00 7 22 mph 1017.3mb 46f 31f
9:54 13 18 mph 1017.2mb 46f 30f
9:48 10 18 mph 1017.3mb 46f 30f
9:42 11 21 mph 1017.1mb 46f 29f
9:36 10 16 mph 1017.1mb 46f 30f
9:30 10 20 mph 1017mb 46f 29f
9:24 15 23 mph 1016.9mb 46f 29f
9:18 11 20 mph 1016.7mb 46f 29f
9:12 14 20 mph 1016.5mb 46f 29f
9:06 11 21 mph 1016.5mb 46f 29f
9:00 9 17 mph 1016.4mb 46f 29f
8:54 13 20 mph 1016.3mb 46f 28f
8:48 15 23 mph 1016.2mb 46f 28f
8:42 11 24 mph 1016.1mb 46f 28f
8:36 13 23 mph 1016mb 46f 28f
8:30 11 22 mph 1015.9mb 47f 28f
8:24 11 24 mph 1015.7mb 47f 27f
8:18 11 20 mph 1015.4mb 47f 27f
8:12 14 20 mph 1015.3mb 47f 27f
8:06 15 24 mph 1015.2mb 47f 27f
8:00 15 28 mph 1015mb 47f 26f
7:54 13 20 mph 1014.9mb 47f 26f
7:48 9 18 mph 1014.9mb 47f 26f
7:42 13 22 mph 1014.7mb 47f 26f
7:36 13 23 mph 1014.6mb 47f 26f
7:30 13 20 mph 1014.5mb 47f 26f
7:24 11 16 mph 1014.4mb 47f 26f
7:18 9 17 mph 1014.3mb 47f 26f
7:12 11 17 mph 1014.2mb 47f 25f
7:06 13 20 mph 1014mb 47f 25f
7:00 11 18 mph 1013.8mb 47f 25f
6:54 14 23 mph 1013.7mb 47f 25f
6:48 11 18 mph 1013.7mb 47f 25f
6:42 10 20 mph 1013.3mb 47f 25f
6:36 13 21 mph 1013.2mb 47f 25f
6:30 10 18 mph 1013.1mb 47f 24f
6:24 10 20 mph 1013.1mb 46f 25f
6:18 14 17 mph 1012.8mb 46f 25f
6:12 13 18 mph 1012.8mb 46f 24f
6:06 10 15 mph 1012.8mb 46f 24f
6:00 9 20 mph 1012.6mb 46f 24f
5:54 10 17 mph 1012.3mb 45f 24f
5:48 11 22 mph 1012.2mb 45f 24f
5:42 10 17 mph 1012mb 45f 24f
5:36 14 20 mph 1011.9mb 44f 24f
5:30 11 21 mph 1011.8mb 44f 24f
5:24 13 20 mph 1011.7mb 44f 24f
5:18 14 20 mph 1011.7mb 44f 24f
5:12 15 25 mph 1011.7mb 44f 24f
5:00 13 22 mph 1011.5mb 44f 24f
4:54 13 30 mph 1011.4mb 44f 24f
4:48 17 24 mph 1011.3mb 43f 24f
4:42 14 26 mph 1011.2mb 43f 24f
4:36 17 26 mph 1011.2mb 42f 24f
4:30 16 26 mph 1011.2mb 42f 24f
4:24 16 22 mph 1011.2mb 42f 24f
4:18 14 25 mph 1011.1mb 41f 24f
4:12 14 21 mph 1011mb 41f 24f
4:06 13 25 mph 1010.8mb 40f 24f
4:00 11 23 mph 1010.8mb 40f 24f
3:54 11 21 mph 1010.9mb 40f 24f
3:48 13 22 mph 1010.9mb 40f 24f
3:42 13 23 mph 1010.6mb 40f 24f
3:36 14 24 mph 1010.5mb 40f 24f
3:30 11 20 mph 1010.6mb 40f 24f
3:24 11 23 mph 1010.5mb 40f 24f
3:18 14 21 mph 1010.5mb 40f 24f
3:12 14 22 mph 1010.5mb 40f 24f
3:06 13 18 mph 1010.4mb 40f 24f
3:00 9 24 mph 1010.4mb 41f 24f
2:54 14 23 mph 1010.3mb 41f 24f
2:48 15 22 mph 1010.3mb 41f 24f
2:42 14 21 mph 1010.3mb 42f 24f
2:36 11 24 mph 1010.2mb 42f 24f
2:30 11 22 mph 1010.2mb 42f 24f
2:24 13 23 mph 1010.1mb 42f 24f
2:18 14 20 mph 1010.2mb 42f 24f
2:00 11 28 mph 1010.1mb 43f 24f
1:54 11 20 mph 1010.1mb 43f 24f
1:48 13 20 mph 1010.1mb 43f 24f
1:42 14 21 mph 1010.2mb 43f 25f
1:36 13 17 mph 1010.1mb 43f 25f
1:30 13 22 mph 1010.1mb 43f 25f
1:24 10 18 mph 1010mb 43f 25f
1:18 11 17 mph 1010.1mb 43f 25f
1:12 10 18 mph 1010.1mb 43f 25f
1:06 14 21 mph 1010mb 44f 25f
1:00 8 15 mph 1010mb 44f 25f
12:54 7 16 mph 1010mb 44f 25f
12:48 10 15 mph 1009.9mb 44f 25f
12:42 14 21 mph 1009.9mb 44f 25f
12:36 10 20 mph 1009.8mb 44f 25f
12:30 11 18 mph 1009.9mb 44f 25f
12:24 11 17 mph 1010mb 44f 25f
12:18 14 18 mph 1010mb 45f 25f
12:12 9 18 mph 1010mb 45f 25f
12:06 10 16 mph 1009.9mb 45f 25f
12:00 8 13 mph 1010mb 44f 25f
Ter 11/18 11:54 8 14 mph 1010mb 44f 25f
11:48 13 18 mph 1010.1mb 44f 25f
11:42 9 17 mph 1010.1mb 44f 25f
11:36 9 18 mph 1010mb 44f 25f
11:30 13 18 mph 1009.9mb 45f 25f
11:24 9 17 mph 1009.9mb 44f 25f
11:18 8 14 mph 1009.9mb 44f 25f
11:12 13 18 mph 1009.9mb 44f 25f
11:06 9 16 mph 1009.8mb 44f 25f
11:00 11 21 mph 1009.9mb 44f 25f
10:54 10 15 mph 1009.8mb 44f 25f
10:48 11 18 mph 1009.8mb 45f 25f
10:42 13 17 mph 1009.8mb 45f 26f
10:36 7 13 mph 1009.9mb 45f 25f
10:30 9 14 mph 1009.8mb 45f 26f
10:24 10 16 mph 1009.8mb 45f 26f
10:18 10 16 mph 1009.8mb 46f 26f
10:12 9 14 mph 1009.8mb 45f 26f
10:06 6 13 mph 1009.7mb 45f 26f
10:00 6 11 mph 1009.7mb 46f 26f
9:54 9 15 mph 1009.7mb 46f 26f
9:48 9 18 mph 1009.6mb 46f 26f
9:42 7 11 mph 1009.5mb 46f 26f
9:36 5 11 mph 1009.6mb 46f 26f
9:30 8 11 mph 1009.7mb 46f 26f
9:24 7 13 mph 1009.6mb 46f 26f
9:18 7 13 mph 1009.6mb 46f 26f
9:12 8 11 mph 1009.6mb 47f 26f
9:06 6 13 mph 1009.5mb 47f 26f
9:00 7 14 mph 1009.5mb 47f 26f
8:54 8 14 mph 1009.5mb 47f 26f
8:48 7 16 mph 1009.4mb 47f 26f
8:42 7 14 mph 1009.3mb 47f 26f
8:36 6 14 mph 1009.2mb 47f 27f
8:30 10 16 mph 1009.2mb 47f 27f
8:24 8 14 mph 1009.1mb 47f 27f
8:18 9 16 mph 1009mb 47f 27f
8:12 11 17 mph 1009.1mb 47f 27f
8:06 9 13 mph 1009mb 47f 27f
8:00 8 14 mph 1008.8mb 47f 27f
7:54 8 15 mph 1008.7mb 47f 27f
7:48 9 14 mph 1008.7mb 47f 27f
7:42 9 15 mph 1008.6mb 47f 27f
7:36 9 14 mph 1008.5mb 47f 27f
7:30 7 14 mph 1008.5mb 47f 27f
7:24 8 11 mph 1008.4mb 47f 27f
7:18 9 16 mph 1008.3mb 47f 28f
7:12 9 17 mph 1008.2mb 47f 28f
7:06 10 18 mph 1008mb 47f 28f
7:00 11 17 mph 1007.9mb 47f 28f
6:54 7 14 mph 1007.8mb 47f 28f
6:48 8 15 mph 1007.8mb 47f 28f
6:42 10 15 mph 1007.7mb 47f 28f
6:36 9 16 mph 1007.6mb 47f 28f
6:30 7 13 mph 1007.6mb 47f 28f
6:24 8 14 mph 1007.7mb 47f 28f
6:18 9 17 mph 1007.6mb 47f 28f
6:12 8 14 mph 1007.5mb 47f 28f
6:06 7 11 mph 1007.4mb 47f 28f
6:00 6 14 mph 1007.3mb 47f 28f
5:54 9 14 mph 1007.1mb 47f 29f
5:48 9 21 mph 1006.8mb 47f 29f
5:42 9 17 mph 1006.7mb 47f 29f
5:36 9 20 mph 1006.6mb 46f 29f
5:30 14 24 mph 1006.6mb 46f 29f
5:24 15 22 mph 1006.6mb 46f 29f
5:18 10 16 mph 1006.6mb 46f 29f
5:12 11 18 mph 1006.4mb 45f 29f
5:06 13 22 mph 1006.3mb 45f 29f
5:00 10 16 mph 1006.2mb 45f 29f
4:54 6 15 mph 1006.1mb 45f 29f
4:48 8 14 mph 1005.9mb 45f 30f
4:42 7 17 mph 1005.8mb 45f 30f
4:36 9 15 mph 1005.7mb 45f 30f
4:30 9 17 mph 1005.6mb 45f 30f
4:24 9 17 mph 1005.5mb 45f 30f
4:18 11 21 mph 1005.4mb 45f 30f
4:06 14 24 mph 1005.2mb 44f 30f
4:00 10 23 mph 1005mb 44f 31f
3:54 15 22 mph 1004.9mb 44f 31f
3:48 15 21 mph 1004.8mb 44f 31f
3:42 11 24 mph 1004.6mb 44f 31f
3:36 17 29 mph 1004.5mb 44f 31f
3:30 16 26 mph 1004.3mb 44f 31f
3:24 15 22 mph 1004.2mb 44f 31f
3:18 18 28 mph 1004mb 44f 31f
3:12 15 29 mph 1004mb 44f 31f
3:06 16 23 mph 1004mb 44f 32f
3:00 14 26 mph 1003.8mb 44f 32f
2:54 10 18 mph 1003.6mb 44f 32f
2:48 14 24 mph 1003.4mb 44f 32f
2:42 11 21 mph 1003.2mb 44f 32f
2:36 15 22 mph 1003mb 44f 32f
2:30 18 26 mph 1003mb 44f 32f
2:24 16 24 mph 1002.9mb 44f 33f
2:18 16 23 mph 1002.9mb 44f 33f
2:12 18 24 mph 1002.6mb 44f 33f
2:06 18 29 mph 1002.6mb 44f 33f
2:00 18 30 mph 1002.6mb 44f 33f
1:54 16 26 mph 1002.4mb 45f 34f
1:48 16 23 mph 1002.2mb 45f 35f
1:42 11 22 mph 1002.3mb 45f 35f
1:36 15 24 mph 1002.1mb 45f 35f
1:30 16 26 mph 1002mb 45f 35f
1:24 16 24 mph 1001.8mb 45f 34f
1:18 14 23 mph 1001.9mb 45f 34f
1:12 13 25 mph 1001.9mb 45f 35f
1:06 10 24 mph 1001.8mb 45f 35f
1:00 17 24 mph 1001.7mb 45f 35f
12:54 16 25 mph 1001.8mb 45f 35f
12:48 13 24 mph 1001.8mb 45f 35f
12:42 11 21 mph 1001.7mb 45f 35f
12:36 13 23 mph 1001.7mb 45f 35f
12:30 13 22 mph 1001.7mb 45f 35f
12:24 15 22 mph 1001.7mb 45f 34f
12:18 13 23 mph 1001.8mb 45f 35f
12:12 18 28 mph 1001.9mb 45f 35f
12:06 15 23 mph 1001.7mb 45f 36f
12:00 14 22 mph 1001.6mb 45f 36f
11:54 14 24 mph 1001.5mb 45f 36f
11:48 15 21 mph 1001.5mb 45f 36f
11:42 14 24 mph 1001.4mb 45f 35f
11:36 16 24 mph 1001.4mb 45f 35f
11:30 14 21 mph 1001.3mb 45f 35f
11:24 15 23 mph 1001.4mb 45f 36f
11:18 13 20 mph 1001.4mb 45f 36f
11:12 16 25 mph 1001.4mb 45f 36f
11:06 14 23 mph 1001.3mb 45f 36f
11:00 15 28 mph 1001.3mb 46f 36f
10:54 15 24 mph 1001.3mb 46f 36f